createdAt,value
2023-04-19T00:00:47.237Z,13.63
2023-04-19T00:03:14.815Z,12.25
2023-04-19T00:05:42.484Z,13.23
2023-04-19T00:08:09.241Z,12.30
2023-04-19T00:10:36.469Z,12.93
2023-04-19T00:13:03.436Z,13.48
2023-04-19T00:15:30.461Z,13.85
2023-04-19T00:17:57.396Z,13.77
2023-04-19T00:20:24.203Z,14.57
2023-04-19T00:22:51.064Z,14.43
2023-04-19T00:25:17.960Z,13.63
2023-04-19T00:27:44.742Z,13.95
2023-04-19T00:30:12.298Z,14.68
2023-04-19T00:32:39.753Z,15.30
2023-04-19T00:35:07.075Z,14.35
2023-04-19T00:37:33.940Z,14.88
2023-04-19T00:40:00.820Z,15.38
2023-04-19T00:42:27.981Z,14.68
2023-04-19T00:44:54.839Z,15.18
2023-04-19T00:47:21.800Z,14.20
2023-04-19T00:49:48.661Z,14.35
2023-04-19T00:52:15.731Z,14.80
2023-04-19T00:54:43.636Z,15.07
2023-04-19T00:57:10.482Z,15.10
2023-04-19T00:59:37.662Z,15.05
2023-04-19T01:02:04.539Z,14.32
2023-04-19T01:04:31.571Z,15.07
2023-04-19T01:06:58.556Z,15.43
2023-04-19T01:09:25.387Z,16.05
2023-04-19T01:11:52.400Z,15.75
2023-04-19T01:14:19.173Z,16.02
2023-04-19T01:16:46.382Z,15.98
2023-04-19T01:19:13.232Z,16.27
2023-04-19T01:21:40.346Z,16.05
2023-04-19T01:24:07.383Z,16.08
2023-04-19T01:26:34.362Z,16.70
2023-04-19T01:29:01.258Z,14.70
2023-04-19T01:31:28.532Z,15.32
2023-04-19T01:33:55.633Z,16.40
2023-04-19T01:36:22.467Z,15.43
2023-04-19T01:38:50.016Z,15.73
2023-04-19T01:41:16.840Z,15.15
2023-04-19T01:43:43.613Z,17.15
2023-04-19T01:46:10.414Z,16.23
2023-04-19T01:48:37.168Z,16.58
2023-04-19T01:51:04.185Z,17.70
2023-04-19T01:53:30.996Z,15.95
2023-04-19T01:55:57.827Z,16.65
2023-04-19T01:58:24.623Z,16.92
2023-04-19T02:00:51.579Z,16.45
2023-04-19T02:03:18.508Z,16.52
2023-04-19T02:05:45.459Z,16.55
2023-04-19T02:08:12.241Z,16.10
2023-04-19T02:10:39.089Z,17.27
2023-04-19T02:13:06.006Z,17.02
2023-04-19T02:15:32.817Z,15.70
2023-04-19T02:18:00.318Z,16.50
2023-04-19T02:20:27.335Z,17.45
2023-04-19T02:22:54.109Z,16.45
2023-04-19T02:25:21.186Z,17.17
2023-04-19T02:27:47.979Z,16.90
2023-04-19T02:30:15.012Z,16.70
2023-04-19T02:32:41.854Z,16.52
2023-04-19T02:35:09.168Z,17.67
2023-04-19T02:37:35.929Z,17.50
2023-04-19T02:40:03.721Z,17.63
2023-04-19T02:42:30.685Z,17.40
2023-04-19T02:44:57.593Z,19.02
2023-04-19T02:47:24.502Z,19.00
2023-04-19T02:49:51.378Z,18.25
2023-04-19T02:52:18.225Z,19.25
2023-04-19T02:54:45.134Z,17.50
2023-04-19T02:57:11.889Z,18.63
2023-04-19T02:59:38.748Z,17.85
2023-04-19T03:02:05.639Z,18.15
2023-04-19T03:04:32.532Z,18.17
2023-04-19T03:06:59.365Z,18.55
2023-04-19T03:09:26.153Z,18.85
2023-04-19T03:11:53.292Z,18.10
2023-04-19T03:14:20.126Z,18.00
2023-04-19T03:16:46.916Z,17.80
2023-04-19T03:19:13.672Z,17.23
2023-04-19T03:21:40.479Z,18.23
2023-04-19T03:24:07.684Z,17.30
2023-04-19T03:26:34.521Z,19.60
2023-04-19T03:29:01.548Z,18.27
2023-04-19T03:31:28.431Z,18.83
2023-04-19T03:33:55.294Z,19.20
2023-04-19T03:36:22.115Z,18.17
2023-04-19T03:38:48.904Z,18.90
2023-04-19T03:41:25.283Z,18.92
2023-04-19T03:43:52.123Z,18.42
2023-04-19T03:46:19.068Z,18.30
2023-04-19T03:48:46.067Z,19.08
2023-04-19T03:51:13.803Z,20.10
2023-04-19T03:53:40.577Z,19.15
2023-04-19T03:56:07.658Z,17.73
2023-04-19T03:58:34.544Z,18.98
2023-04-19T04:01:01.342Z,19.77
2023-04-19T04:03:28.364Z,19.73
2023-04-19T04:05:55.569Z,19.55
2023-04-19T04:08:22.401Z,18.02
2023-04-19T04:10:49.240Z,18.40
2023-04-19T04:13:16.138Z,20.35
2023-04-19T04:15:42.947Z,18.90
2023-04-19T04:18:09.844Z,19.83
2023-04-19T04:20:36.782Z,19.90
2023-04-19T04:23:03.704Z,19.77
2023-04-19T04:25:33.020Z,19.70
2023-04-19T04:27:59.949Z,19.67
2023-04-19T04:30:27.949Z,19.80
2023-04-19T04:32:58.014Z,19.10
2023-04-19T04:35:25.010Z,18.98
2023-04-19T04:37:53.911Z,20.17
2023-04-19T04:40:21.402Z,21.23
2023-04-19T04:42:48.554Z,19.52
2023-04-19T04:45:18.284Z,19.92
2023-04-19T04:47:46.433Z,19.60
2023-04-19T04:50:13.306Z,20.33
2023-04-19T04:52:40.371Z,19.40
2023-04-19T04:55:07.758Z,20.75
2023-04-19T04:57:34.732Z,22.20
2023-04-19T05:00:01.728Z,19.40
2023-04-19T05:02:28.776Z,20.95
2023-04-19T05:04:55.631Z,19.27
2023-04-19T05:07:22.411Z,20.42
2023-04-19T05:09:49.293Z,20.15
2023-04-19T05:12:16.186Z,19.73
2023-04-19T05:14:42.997Z,19.85
2023-04-19T05:17:09.794Z,19.52
2023-04-19T05:19:36.603Z,19.10
2023-04-19T05:22:03.422Z,18.83
2023-04-19T05:24:30.336Z,18.75
2023-04-19T05:26:57.173Z,20.17
2023-04-19T05:29:23.991Z,19.95
2023-04-19T05:31:51.486Z,20.10
2023-04-19T05:34:20.588Z,18.70
2023-04-19T05:36:48.890Z,18.80
2023-04-19T05:39:15.880Z,19.45
2023-04-19T05:41:43.155Z,19.73
2023-04-19T05:44:10.239Z,19.48
2023-04-19T05:46:37.398Z,19.63
2023-04-19T05:49:04.301Z,20.45
2023-04-19T05:51:31.809Z,19.92
2023-04-19T05:54:00.377Z,20.55
2023-04-19T05:56:27.302Z,20.08
2023-04-19T05:58:56.195Z,18.85
2023-04-19T06:01:24.086Z,19.83
2023-04-19T06:03:53.439Z,19.55
2023-04-19T06:06:23.069Z,19.52
2023-04-19T06:08:52.532Z,18.95
2023-04-19T06:11:26.901Z,19.38
2023-04-19T06:14:01.914Z,19.75
2023-04-19T06:16:28.920Z,18.77
2023-04-19T06:18:55.822Z,19.67
2023-04-19T06:21:23.068Z,17.05
2023-04-19T06:23:49.884Z,17.70
2023-04-19T06:26:16.706Z,18.20
2023-04-19T06:28:43.510Z,18.25
2023-04-19T06:31:10.570Z,17.63
2023-04-19T06:33:37.446Z,16.75
2023-04-19T06:36:04.780Z,16.33
2023-04-19T06:38:32.032Z,16.10
2023-04-19T06:40:58.900Z,15.40
2023-04-19T06:43:25.908Z,14.82
2023-04-19T06:46:01.416Z,16.20
2023-04-19T06:48:28.387Z,15.98
2023-04-19T06:50:55.620Z,14.68
2023-04-19T06:53:23.491Z,16.27
2023-04-19T06:55:59.737Z,14.88
2023-04-19T06:58:27.792Z,14.15
2023-04-19T07:00:55.160Z,14.82
2023-04-19T07:03:23.239Z,13.82
2023-04-19T07:05:52.339Z,13.82
2023-04-19T07:08:19.184Z,13.27
2023-04-19T07:10:45.982Z,13.07
2023-04-19T07:13:13.236Z,14.13
2023-04-19T07:15:40.270Z,13.60
2023-04-19T07:18:07.233Z,12.60
2023-04-19T07:20:34.387Z,13.00
2023-04-19T07:23:01.233Z,12.73
2023-04-19T07:25:28.240Z,13.40
2023-04-19T07:27:56.561Z,13.35
2023-04-19T07:30:23.607Z,13.15
2023-04-19T07:32:51.955Z,12.75
2023-04-19T07:35:19.527Z,14.13
2023-04-19T07:37:46.524Z,12.93
2023-04-19T07:40:13.785Z,12.90
2023-04-19T07:42:40.668Z,12.43
2023-04-19T07:45:08.953Z,13.10
2023-04-19T07:47:35.945Z,13.32
2023-04-19T07:50:03.346Z,11.77
2023-04-19T07:52:30.209Z,12.88
2023-04-19T07:54:57.039Z,11.48
2023-04-19T07:57:23.862Z,11.57
2023-04-19T07:59:50.668Z,11.45
2023-04-19T08:02:19.154Z,12.02
2023-04-19T08:04:49.644Z,11.30
2023-04-19T08:07:16.665Z,11.23
2023-04-19T08:09:43.800Z,11.27
2023-04-19T08:12:14.865Z,11.40
2023-04-19T08:15:00.771Z,10.80
2023-04-19T08:17:41.897Z,10.38
2023-04-19T08:20:12.212Z,10.30
2023-04-19T08:22:40.837Z,9.30
2023-04-19T08:25:08.629Z,9.20
2023-04-19T08:27:36.073Z,10.02
2023-04-19T08:30:03.761Z,9.52
2023-04-19T08:32:30.655Z,9.60
2023-04-19T08:34:57.534Z,9.25
2023-04-19T08:37:24.371Z,8.20
2023-04-19T08:39:51.298Z,8.50
2023-04-19T08:42:33.243Z,8.43
2023-04-19T08:47:48.518Z,7.93
2023-04-19T08:50:33.218Z,7.68
2023-04-19T08:53:16.316Z,8.05
2023-04-19T08:56:06.888Z,7.63
2023-04-19T09:01:11.207Z,7.30
2023-04-19T09:04:00.414Z,8.07
2023-04-19T09:06:40.654Z,7.72
2023-04-19T09:12:00.295Z,9.10
2023-04-19T09:14:29.087Z,8.50
2023-04-19T09:17:16.964Z,8.98
2023-04-19T09:19:50.832Z,8.93
2023-04-19T09:22:18.223Z,9.55
2023-04-19T09:27:33.792Z,9.43
2023-04-19T09:30:03.084Z,9.00
2023-04-19T09:32:49.061Z,8.95
2023-04-19T09:35:16.635Z,9.13
2023-04-19T09:40:26.946Z,9.23
2023-04-19T09:43:08.804Z,9.63
2023-04-19T09:45:46.356Z,9.80
2023-04-19T09:48:14.100Z,9.55
2023-04-19T09:51:02.480Z,9.73
2023-04-19T09:53:34.285Z,10.20
2023-04-19T09:56:03.484Z,9.70
2023-04-19T10:01:13.362Z,9.23
2023-04-19T10:03:47.880Z,9.27
2023-04-19T10:08:51.275Z,9.77
2023-04-19T10:11:21.984Z,9.27
2023-04-19T10:13:53.080Z,10.48
2023-04-19T10:16:20.890Z,10.73
2023-04-19T10:18:50.610Z,11.15
2023-04-19T10:21:19.212Z,10.73
2023-04-19T10:23:47.037Z,9.75
2023-04-19T10:26:13.920Z,10.23
2023-04-19T10:28:42.318Z,9.55
2023-04-19T10:31:15.329Z,10.07
2023-04-19T10:33:42.385Z,9.80
2023-04-19T10:36:11.660Z,9.30
2023-04-19T10:38:55.628Z,9.63
2023-04-19T10:41:22.989Z,9.27
2023-04-19T10:43:56.092Z,9.63
2023-04-19T10:46:23.130Z,9.88
2023-04-19T10:49:00.699Z,10.05
2023-04-19T10:51:36.205Z,9.20
2023-04-19T10:54:32.547Z,9.20
2023-04-19T10:57:06.277Z,9.60
2023-04-19T10:59:38.982Z,10.13
2023-04-19T11:02:29.160Z,10.32
2023-04-19T11:04:56.080Z,8.93
2023-04-19T11:07:25.410Z,10.13
2023-04-19T11:09:52.780Z,9.48
2023-04-19T11:12:21.783Z,9.82
2023-04-19T11:14:54.133Z,9.75
2023-04-19T11:17:30.983Z,10.20
2023-04-19T11:20:09.922Z,10.25
2023-04-19T11:22:47.457Z,9.38
2023-04-19T11:25:19.420Z,9.07
2023-04-19T11:27:52.823Z,8.75
2023-04-19T11:30:29.275Z,8.73
2023-04-19T11:32:58.111Z,9.00
2023-04-19T11:35:28.440Z,8.82
2023-04-19T11:37:56.914Z,8.82
2023-04-19T11:40:28.538Z,9.38
2023-04-19T11:43:00.456Z,8.88
2023-04-19T11:45:39.724Z,9.13
2023-04-19T11:48:15.049Z,9.20
2023-04-19T11:50:45.958Z,9.23
2023-04-19T11:53:18.028Z,9.25
2023-04-19T11:55:51.334Z,9.25
2023-04-19T11:58:30.076Z,9.82
2023-04-19T12:01:19.523Z,9.68
2023-04-19T12:03:49.022Z,9.90
2023-04-19T12:06:25.707Z,10.48
2023-04-19T12:08:54.987Z,10.55
2023-04-19T12:11:44.797Z,10.88
2023-04-19T12:14:16.822Z,10.98
2023-04-19T12:16:45.154Z,10.77
2023-04-19T12:19:18.770Z,11.30
2023-04-19T12:21:47.007Z,10.68
2023-04-19T12:24:16.249Z,11.60
2023-04-19T12:26:57.386Z,11.25
2023-04-19T12:29:24.626Z,11.15
2023-04-19T12:31:51.486Z,10.60
2023-04-19T12:34:18.338Z,11.88
2023-04-19T12:36:45.293Z,11.48
2023-04-19T12:39:13.416Z,13.30
2023-04-19T12:41:40.402Z,13.23
2023-04-19T12:44:07.467Z,13.15
2023-04-19T12:46:34.505Z,14.15
2023-04-19T12:49:01.349Z,15.82
2023-04-19T12:51:28.238Z,16.40
2023-04-19T12:53:55.460Z,17.77
2023-04-19T12:56:22.356Z,17.92
2023-04-19T12:58:49.186Z,17.52
2023-04-19T13:01:16.258Z,17.90
2023-04-19T13:03:43.297Z,19.55
2023-04-19T13:06:13.485Z,18.77
2023-04-19T13:08:45.402Z,19.08
2023-04-19T13:11:14.706Z,29.80
2023-04-19T13:13:41.474Z,64.78
2023-04-19T13:16:08.386Z,49.67
2023-04-19T13:18:35.369Z,27.17
2023-04-19T13:21:02.719Z,27.13
2023-04-19T13:23:29.584Z,24.00
2023-04-19T13:25:56.423Z,23.10
2023-04-19T13:28:23.265Z,24.92
2023-04-19T13:30:50.154Z,23.85
2023-04-19T13:33:17.022Z,24.95
2023-04-19T13:35:45.040Z,32.88
2023-04-19T13:38:11.884Z,40.05
2023-04-19T13:40:38.742Z,22.15
2023-04-19T13:43:05.595Z,20.35
2023-04-19T13:45:32.418Z,21.10
2023-04-19T13:47:59.340Z,20.00
2023-04-19T13:50:26.273Z,19.27
2023-04-19T13:52:53.127Z,18.80
2023-04-19T13:55:20.065Z,18.42
2023-04-19T13:57:46.870Z,18.90
2023-04-19T14:00:14.738Z,18.33
2023-04-19T14:02:42.068Z,18.05
2023-04-19T14:05:09.714Z,21.38
2023-04-19T14:07:39.376Z,18.85
2023-04-19T14:10:07.816Z,17.67
2023-04-19T14:12:34.660Z,16.10
2023-04-19T14:15:01.647Z,16.05
2023-04-19T14:17:28.514Z,17.27
2023-04-19T14:19:56.726Z,16.45
2023-04-19T14:22:23.560Z,16.40
2023-04-19T14:24:50.898Z,15.15
2023-04-19T14:27:19.113Z,13.63
2023-04-19T14:29:46.006Z,15.85
2023-04-19T14:32:25.045Z,14.60
2023-04-19T14:34:54.321Z,14.80
2023-04-19T14:37:23.142Z,16.23
2023-04-19T14:39:50.111Z,21.05
2023-04-19T14:42:16.981Z,14.88
2023-04-19T14:44:43.960Z,14.77
2023-04-19T14:47:11.237Z,13.43
2023-04-19T14:49:38.174Z,13.32
2023-04-19T14:52:05.187Z,12.95
2023-04-19T14:54:32.476Z,13.40
2023-04-19T14:56:59.821Z,11.60
2023-04-19T14:59:28.186Z,12.38
2023-04-19T15:01:57.859Z,12.45
2023-04-19T15:04:25.030Z,12.63
2023-04-19T15:06:52.049Z,10.63
2023-04-19T15:09:19.044Z,11.15
2023-04-19T15:11:45.991Z,11.20
2023-04-19T15:14:12.850Z,10.75
2023-04-19T15:16:39.680Z,10.63
2023-04-19T15:19:07.533Z,10.43
2023-04-19T15:21:34.852Z,10.48
2023-04-19T15:24:01.786Z,10.00
2023-04-19T15:26:29.199Z,9.13
2023-04-19T15:28:56.505Z,8.77
2023-04-19T15:31:25.240Z,9.13
2023-04-19T15:33:52.956Z,9.48
2023-04-19T15:36:19.812Z,9.50
2023-04-19T15:38:46.643Z,9.13
2023-04-19T15:41:13.659Z,10.02
2023-04-19T15:43:40.564Z,10.00
2023-04-19T15:46:13.379Z,10.05
2023-04-19T15:48:43.886Z,10.10
2023-04-19T15:51:11.618Z,10.00
2023-04-19T15:53:38.641Z,9.85
2023-04-19T15:56:06.338Z,10.20
2023-04-19T15:58:33.149Z,11.02
2023-04-19T16:00:59.973Z,10.45
2023-04-19T16:03:27.779Z,10.45
2023-04-19T16:05:55.572Z,10.65
2023-04-19T16:08:22.519Z,10.70
2023-04-19T16:10:49.977Z,10.52
2023-04-19T16:13:17.030Z,10.63
2023-04-19T16:15:45.089Z,10.60
2023-04-19T16:18:13.988Z,10.43
2023-04-19T16:20:41.731Z,10.93
2023-04-19T16:23:08.956Z,10.63
2023-04-19T16:25:35.922Z,10.38
2023-04-19T16:28:02.995Z,9.48
2023-04-19T16:30:29.846Z,10.00
2023-04-19T16:32:58.697Z,10.32
2023-04-19T16:35:27.147Z,10.05
2023-04-19T16:37:56.728Z,10.82
2023-04-19T16:40:24.553Z,10.90
2023-04-19T16:42:51.625Z,10.05
2023-04-19T16:45:18.525Z,10.43
2023-04-19T16:47:46.428Z,11.82
2023-04-19T16:50:14.407Z,10.98
2023-04-19T16:52:41.700Z,11.70
2023-04-19T16:55:09.232Z,9.98
2023-04-19T16:57:36.795Z,10.30
2023-04-19T17:00:05.997Z,10.35
2023-04-19T17:02:33.756Z,9.95
2023-04-19T17:05:01.261Z,10.70
2023-04-19T17:07:28.513Z,10.55
2023-04-19T17:09:56.229Z,11.18
2023-04-19T17:12:23.169Z,10.45
2023-04-19T17:14:50.024Z,10.95
2023-04-19T17:17:19.886Z,11.15
2023-04-19T17:19:46.829Z,10.98
2023-04-19T17:22:15.276Z,11.20
2023-04-19T17:24:42.821Z,11.52
2023-04-19T17:27:09.905Z,11.15
2023-04-19T17:29:37.003Z,11.43
2023-04-19T17:32:04.645Z,10.73
2023-04-19T17:34:34.788Z,11.20
2023-04-19T17:37:03.597Z,11.77
2023-04-19T17:39:30.599Z,12.25
2023-04-19T17:41:57.465Z,12.13
2023-04-19T17:44:24.767Z,11.95
2023-04-19T17:46:51.614Z,11.90
2023-04-19T17:49:20.090Z,11.77
2023-04-19T17:51:47.565Z,10.30
2023-04-19T17:54:15.805Z,4.60
2023-04-19T17:56:43.002Z,5.90
2023-04-19T17:59:10.049Z,5.13
2023-04-19T18:01:37.051Z,3.92
2023-04-19T18:04:04.625Z,5.75
2023-04-19T18:06:31.997Z,3.20
2023-04-19T18:08:59.068Z,3.00
2023-04-19T18:11:28.357Z,2.60
2023-04-19T18:13:55.775Z,2.38
2023-04-19T18:16:22.821Z,2.00
2023-04-19T18:18:50.070Z,2.03
2023-04-19T18:21:18.446Z,2.08
2023-04-19T18:23:45.601Z,1.63
2023-04-19T18:26:12.637Z,1.90
2023-04-19T18:28:40.335Z,1.80
2023-04-19T18:31:08.589Z,1.80
2023-04-19T18:33:36.409Z,1.83
2023-04-19T18:36:04.292Z,1.70
2023-04-19T18:38:31.653Z,1.60
2023-04-19T18:40:59.118Z,1.85
2023-04-19T18:43:28.787Z,1.70
2023-04-19T18:45:56.286Z,2.10
2023-04-19T18:48:29.041Z,1.90
2023-04-19T18:50:57.261Z,1.80
2023-04-19T18:53:28.454Z,1.98
2023-04-19T18:55:59.324Z,2.10
2023-04-19T18:58:27.207Z,2.20
2023-04-19T19:00:55.672Z,2.08
2023-04-19T19:03:43.830Z,2.08
2023-04-19T19:06:10.868Z,2.13
2023-04-19T19:08:38.123Z,2.47
2023-04-19T19:11:36.051Z,2.10
2023-04-19T19:13:52.992Z,2.10
2023-04-19T19:16:19.892Z,1.98
2023-04-19T19:18:46.661Z,2.40
2023-04-19T19:21:13.450Z,2.53
2023-04-19T19:23:42.647Z,2.00
2023-04-19T19:26:13.133Z,2.08
2023-04-19T19:28:40.424Z,2.33
2023-04-19T19:31:07.273Z,2.40
2023-04-19T19:33:34.905Z,2.55
2023-04-19T19:36:01.688Z,2.30
2023-04-19T19:38:28.450Z,2.58
2023-04-19T19:41:28.436Z,2.20
2023-04-19T19:43:42.208Z,2.35
2023-04-19T19:46:10.756Z,2.22
2023-04-19T19:48:42.343Z,2.42
2023-04-19T19:51:36.374Z,3.35
2023-04-19T19:53:56.782Z,2.70
2023-04-19T19:56:24.545Z,2.70
2023-04-19T19:58:52.319Z,2.50
2023-04-19T20:01:22.048Z,3.88
2023-04-19T20:03:50.215Z,2.72
2023-04-19T20:07:07.674Z,2.20
2023-04-19T20:09:04.508Z,2.55
2023-04-19T20:11:31.389Z,2.00
2023-04-19T20:13:58.162Z,2.67
2023-04-19T20:16:25.119Z,2.33
2023-04-19T20:18:52.666Z,2.58
2023-04-19T20:21:20.346Z,2.30
2023-04-19T20:23:47.260Z,2.35
2023-04-19T20:26:14.050Z,2.38
2023-04-19T20:28:40.940Z,2.80
2023-04-19T20:31:08.038Z,2.70
2023-04-19T20:33:34.926Z,2.65
2023-04-19T20:36:03.613Z,2.75
2023-04-19T20:38:31.925Z,2.75
2023-04-19T20:40:58.701Z,2.70
2023-04-19T20:43:25.511Z,4.65
2023-04-19T20:45:52.320Z,3.35
2023-04-19T20:48:19.285Z,3.50
2023-04-19T20:50:46.084Z,5.72
2023-04-19T20:53:13.181Z,4.90
2023-04-19T20:55:40.814Z,5.72
2023-04-19T20:58:07.643Z,4.28
2023-04-19T21:00:34.435Z,3.50
2023-04-19T21:03:01.501Z,2.88
2023-04-19T21:05:28.391Z,3.15
2023-04-19T21:07:55.240Z,3.83
2023-04-19T21:10:22.157Z,5.50
2023-04-19T21:12:49.740Z,2.85
2023-04-19T21:15:16.712Z,2.80
2023-04-19T21:17:43.693Z,2.35
2023-04-19T21:20:15.676Z,3.03
2023-04-19T21:22:44.942Z,2.70
2023-04-19T21:25:12.899Z,2.50
2023-04-19T21:27:41.882Z,3.00
2023-04-19T21:30:10.298Z,2.83
2023-04-19T21:32:37.176Z,3.70
2023-04-19T21:35:04.475Z,2.50
2023-04-19T21:37:31.371Z,2.38
2023-04-19T21:39:58.179Z,3.72
2023-04-19T21:42:25.013Z,3.30
2023-04-19T21:44:51.811Z,3.47
2023-04-19T21:47:18.849Z,2.97
2023-04-19T21:49:47.043Z,3.20
2023-04-19T21:52:13.980Z,6.00
2023-04-19T21:54:40.858Z,8.85
2023-04-19T21:57:08.387Z,10.45
2023-04-19T21:59:35.750Z,9.18
2023-04-19T22:02:02.768Z,7.30
2023-04-19T22:04:31.036Z,10.88
2023-04-19T22:07:03.769Z,7.38
2023-04-19T22:09:30.937Z,3.97
2023-04-19T22:11:57.873Z,5.18
2023-04-19T22:14:24.707Z,5.13
2023-04-19T22:16:51.659Z,6.82
2023-04-19T22:19:18.741Z,6.50
2023-04-19T22:21:46.680Z,5.43
2023-04-19T22:24:13.601Z,6.07
2023-04-19T22:26:40.783Z,6.40
2023-04-19T22:29:07.699Z,3.60
2023-04-19T22:31:34.502Z,3.78
2023-04-19T22:34:01.380Z,3.75
2023-04-19T22:36:28.400Z,4.13
2023-04-19T22:38:55.590Z,4.80
2023-04-19T22:41:22.348Z,4.25
2023-04-19T22:43:49.201Z,3.55
2023-04-19T22:46:16.135Z,3.60
2023-04-19T22:48:42.930Z,6.47
2023-04-19T22:51:10.667Z,7.00
2023-04-19T22:53:38.158Z,4.85
2023-04-19T22:56:05.889Z,8.90
2023-04-19T22:58:32.704Z,8.25
2023-04-19T23:00:59.563Z,9.88
2023-04-19T23:03:26.653Z,11.07
2023-04-19T23:05:54.316Z,8.23
2023-04-19T23:08:21.462Z,16.35
2023-04-19T23:10:50.881Z,17.20
2023-04-19T23:13:18.329Z,16.60
2023-04-19T23:15:45.826Z,12.88
2023-04-19T23:18:12.760Z,11.52
2023-04-19T23:20:39.693Z,7.20
2023-04-19T23:23:07.853Z,5.95
2023-04-19T23:25:35.316Z,7.18
2023-04-19T23:28:02.115Z,4.00
2023-04-19T23:30:29.698Z,5.55
2023-04-19T23:32:56.590Z,11.75
2023-04-19T23:35:23.664Z,11.73
2023-04-19T23:37:50.627Z,7.80
2023-04-19T23:40:17.772Z,11.02
2023-04-19T23:42:44.646Z,10.13
2023-04-19T23:45:11.535Z,3.83
2023-04-19T23:47:38.368Z,3.63
2023-04-19T23:50:06.120Z,3.65
2023-04-19T23:52:32.936Z,6.07
2023-04-19T23:54:59.831Z,4.72
2023-04-19T23:57:26.608Z,7.57
2023-04-19T23:59:53.427Z,7.72
